Time;durP1;ratioP1;P1;durP2;ratioP2;P2;SDS_P1;SDS_P2;PMS_P1;PMS_P2;Temp;Humidity;BMP_temperature;BMP_pressure;BME280_temperature;BME280_humidity;BME280_pressure;Samples;Min_cycle;Max_cycle;Signal;HPM_P1;HPM_P2
2021/11/24 03:32:11;;;;;;;135.50;36.20;;;;;;;0.17;79.11;98950.03;5137355;23;20052;-48
2021/11/24 03:34:36;;;;;;;56.45;21.25;;;;;;;0.04;79.76;98949.38;4933955;29;20031;-47
2021/11/24 03:37:02;;;;;;;60.88;23.55;;;;;;;0.15;78.66;98934.59;4933309;29;20391;-49
2021/11/24 03:39:27;;;;;;;81.18;30.42;;;;;;;0.15;79.45;98952.66;4934436;29;20028;-47
2021/11/24 03:41:53;;;;;;;66.90;27.75;;;;;;;0.24;79.35;98949.06;4949772;29;20031;-48
2021/11/24 03:44:18;;;;;;;44.50;18.73;;;;;;;0.48;77.82;98950.41;4953535;29;20027;-46
2021/11/24 03:46:43;;;;;;;44.22;18.58;;;;;;;0.40;78.50;98949.69;4953345;29;20077;-47
2021/11/24 03:49:09;;;;;;;40.28;17.92;;;;;;;0.39;78.36;98948.00;4953510;28;20045;-48
2021/11/24 03:51:34;;;;;;;40.83;18.30;;;;;;;0.31;78.87;98939.50;4942197;28;20028;-47
2021/11/24 03:54:00;;;;;;;39.40;16.25;;;;;;;0.45;78.40;98943.59;4938052;29;20031;-47
2021/11/24 03:56:25;;;;;;;37.08;16.85;;;;;;;0.60;77.26;98939.91;4939621;29;20476;-48
2021/11/24 03:58:50;;;;;;;31.95;16.33;;;;;;;0.37;77.91;98936.84;4957314;28;20109;-47
2021/11/24 04:01:16;;;;;;;32.08;14.82;;;;;;;0.37;79.13;98944.59;4956909;29;20031;-50
2021/11/24 04:03:41;;;;;;;37.03;16.70;;;;;;;0.22;78.66;98935.38;4957127;28;20026;-48
2021/11/24 04:06:07;;;;;;;30.58;14.48;;;;;;;0.21;79.10;98937.09;4956647;28;20494;-47
2021/11/24 04:08:32;;;;;;;45.25;22.75;;;;;;;0.13;80.40;98930.34;4956717;29;20031;-47
2021/11/24 04:10:57;;;;;;;37.80;20.10;;;;;;;0.49;78.85;98928.91;4957118;28;20031;-48
2021/11/24 04:13:23;;;;;;;31.92;16.63;;;;;;;0.20;79.83;98927.63;4956794;28;20035;-47
2021/11/24 04:15:48;;;;;;;44.03;22.05;;;;;;;0.27;80.07;98927.53;4957097;28;20025;-49
2021/11/24 04:18:13;;;;;;;29.25;13.13;;;;;;;0.56;78.38;98922.78;4956687;28;20542;-47
2021/11/24 04:20:39;;;;;;;31.83;14.40;;;;;;;0.37;79.56;98929.09;4956271;28;20027;-51
2021/11/24 04:23:04;;;;;;;29.45;14.88;;;;;;;0.55;78.84;98923.66;4956913;28;20033;-48
2021/11/24 04:25:30;;;;;;;29.27;13.43;;;;;;;0.34;79.10;98923.97;4956653;29;20023;-49
2021/11/24 04:27:56;;;;;;;26.13;13.75;;;;;;;0.47;78.46;98923.75;4956803;28;20031;-46
2021/11/24 04:30:22;;;;;;;35.25;16.70;;;;;;;0.38;78.41;98915.31;4956129;28;20447;-49
2021/11/24 04:32:47;;;;;;;29.13;14.75;;;;;;;0.56;78.40;98925.34;4956656;28;20483;-49
2021/11/24 04:35:12;;;;;;;34.25;16.52;;;;;;;0.35;79.05;98930.88;4955425;29;20053;-47
2021/11/24 04:37:38;;;;;;;29.70;14.13;;;;;;;0.29;79.63;98925.81;4956765;29;20023;-48
2021/11/24 04:40:05;;;;;;;24.33;13.60;;;;;;;0.42;79.17;98917.00;4956073;28;20090;-49
2021/11/24 04:42:30;;;;;;;26.55;13.38;;;;;;;0.47;79.25;98917.75;4955873;28;20031;-47
2021/11/24 04:44:56;;;;;;;26.90;12.88;;;;;;;0.32;79.89;98923.19;4956395;28;20415;-48
2021/11/24 04:47:21;;;;;;;30.15;14.35;;;;;;;0.44;79.42;98921.22;4956105;29;20028;-49
2021/11/24 04:49:46;;;;;;;35.40;17.40;;;;;;;0.31;79.69;98921.44;4956454;28;20489;-51
2021/11/24 04:52:12;;;;;;;35.13;16.83;;;;;;;0.52;79.01;98918.53;4956416;28;20033;-49
2021/11/24 04:54:37;;;;;;;31.08;14.90;;;;;;;0.39;78.72;98904.13;4956144;28;20023;-48
2021/11/24 04:57:03;;;;;;;35.85;15.95;;;;;;;0.58;78.25;98918.41;4955678;28;20038;-50
2021/11/24 04:59:28;;;;;;;32.55;15.10;;;;;;;0.54;78.87;98916.78;4955509;28;20034;-51
2021/11/24 05:01:54;;;;;;;261.60;53.90;;;;;;;0.48;79.37;98916.88;4955871;28;20406;-48
2021/11/24 05:04:21;;;;;;;239.80;56.38;;;;;;;0.49;79.24;98923.75;4955940;29;20364;-51
2021/11/24 05:06:47;;;;;;;120.13;38.30;;;;;;;0.57;78.43;98916.72;4956351;28;20027;-49
2021/11/24 05:09:12;;;;;;;151.18;46.88;;;;;;;0.63;78.12;98919.19;4955828;29;20102;-48
2021/11/24 05:11:38;;;;;;;74.30;28.05;;;;;;;0.63;78.70;98916.63;4954431;29;20031;-46
2021/11/24 05:14:05;;;;;;;57.60;24.42;;;;;;;0.60;78.32;98911.50;4938421;29;20122;-46
2021/11/24 05:16:34;;;;;;;42.00;19.70;;;;;;;0.52;79.23;98913.38;4952013;28;20070;-47
2021/11/24 05:19:00;;;;;;;35.78;16.30;;;;;;;0.55;79.24;98921.06;4936865;29;20070;-47
2021/11/24 05:21:34;;;;;;;35.15;16.25;;;;;;;0.33;79.93;98917.97;4953085;29;20034;-51
2021/11/24 05:23:59;;;;;;;30.88;14.25;;;;;;;0.47;79.88;98916.03;4955689;28;20027;-48
2021/11/24 05:26:28;;;;;;;32.38;14.68;;;;;;;0.69;78.66;98921.69;4955854;28;20551;-47
2021/11/24 05:28:53;;;;;;;33.78;14.95;;;;;;;0.50;79.47;98915.13;4955535;28;20038;-48
2021/11/24 05:31:19;;;;;;;29.35;15.45;;;;;;;0.85;78.55;98916.25;4947959;28;20448;-47
2021/11/24 05:33:46;;;;;;;29.55;13.80;;;;;;;0.86;78.57;98918.81;4955425;28;20042;-47
2021/11/24 05:36:11;;;;;;;28.73;13.80;;;;;;;0.58;79.41;98922.72;4955742;28;20031;-47
2021/11/24 05:38:38;;;;;;;38.53;15.20;;;;;;;0.69;79.20;98921.69;4954902;28;20375;-47
2021/11/24 05:41:03;;;;;;;28.33;13.00;;;;;;;0.56;79.85;98925.34;4955159;28;20051;-48
2021/11/24 05:43:30;;;;;;;27.27;13.77;;;;;;;0.64;80.23;98922.63;4955492;28;20041;-48
2021/11/24 05:48:21;;;;;;;30.58;14.57;;;;;;;0.71;78.84;98912.16;4955610;28;20027;-47
2021/11/24 05:50:47;;;;;;;31.00;13.95;;;;;;;0.87;78.63;98909.31;4952661;29;20027;-47
2021/11/24 05:53:14;;;;;;;31.13;15.02;;;;;;;0.89;77.97;98904.97;4951386;28;20035;-49
2021/11/24 05:55:39;;;;;;;26.00;14.02;;;;;;;0.84;79.14;98909.38;4936142;29;20020;-47
2021/11/24 05:58:05;;;;;;;29.55;14.98;;;;;;;0.80;79.31;98902.56;4936302;29;20103;-47
2021/11/24 06:00:30;;;;;;;32.30;15.00;;;;;;;0.78;79.06;98896.56;4943946;29;20399;-47
2021/11/24 06:02:55;;;;;;;30.45;14.82;;;;;;;0.95;78.50;98903.13;4954064;29;20023;-47
2021/11/24 06:05:21;;;;;;;33.83;16.38;;;;;;;1.02;77.59;98898.69;4954899;29;20491;-46
2021/11/24 06:07:46;;;;;;;32.28;15.93;;;;;;;0.97;78.08;98894.50;4941482;28;20040;-48
2021/11/24 06:10:11;;;;;;;34.20;17.15;;;;;;;1.07;77.75;98902.06;4936390;29;20032;-47
2021/11/24 06:12:37;;;;;;;34.88;15.98;;;;;;;0.72;78.84;98902.69;4953107;28;20498;-47
2021/11/24 06:15:03;;;;;;;33.75;17.48;;;;;;;0.96;78.56;98893.63;4954271;29;20027;-47
2021/11/24 06:17:28;;;;;;;32.88;16.80;;;;;;;1.04;78.15;98896.94;4955130;28;20387;-47
2021/11/24 06:19:53;;;;;;;31.52;15.88;;;;;;;0.93;77.54;98893.72;4954751;29;20475;-46
2021/11/24 06:22:19;;;;;;;37.80;17.20;;;;;;;0.91;77.71;98892.88;4954106;29;20035;-51
2021/11/24 06:24:44;;;;;;;32.63;15.60;;;;;;;0.88;77.82;98895.53;4952931;28;20038;-46
2021/11/24 06:27:10;;;;;;;36.22;17.05;;;;;;;0.87;78.31;98886.94;4951465;28;20132;-47
2021/11/24 06:29:35;;;;;;;36.60;17.27;;;;;;;0.83;78.32;98887.88;4950064;29;20439;-46
2021/11/24 06:32:01;;;;;;;34.95;17.40;;;;;;;0.87;78.10;98881.75;4936384;29;20036;-48
2021/11/24 06:34:26;;;;;;;31.92;15.98;;;;;;;0.97;78.10;98885.03;4935968;29;20031;-48
2021/11/24 06:36:53;;;;;;;31.38;15.05;;;;;;;1.00;78.33;98887.56;4954449;28;20034;-49
2021/11/24 06:39:20;;;;;;;32.75;15.73;;;;;;;0.81;78.12;98883.59;4954336;28;20023;-47
2021/11/24 06:41:45;;;;;;;32.53;15.80;;;;;;;0.77;77.96;98871.63;4953286;29;20059;-47
2021/11/24 06:44:11;;;;;;;30.35;15.48;;;;;;;0.50;80.01;98873.81;4963695;28;20038;-48
2021/11/24 06:46:36;;;;;;;33.05;14.82;;;;;;;0.69;79.37;98875.22;4953719;29;20035;-47
2021/11/24 06:49:01;;;;;;;35.17;14.73;;;;;;;0.91;78.78;98885.13;4954344;29;20402;-45
2021/11/24 06:51:27;;;;;;;27.73;13.70;;;;;;;0.94;78.27;98880.75;4953387;28;20031;-49
2021/11/24 06:53:52;;;;;;;27.00;13.23;;;;;;;0.88;78.21;98882.59;4954046;28;20023;-47
2021/11/24 06:56:17;;;;;;;31.92;15.88;;;;;;;0.93;78.62;98884.25;4953522;29;20039;-47
2021/11/24 06:58:43;;;;;;;33.08;16.05;;;;;;;0.50;79.74;98866.06;4953924;29;20224;-47
2021/11/24 07:01:08;;;;;;;34.50;14.75;;;;;;;0.91;79.33;98879.97;4953861;29;20050;-47
2021/11/24 07:03:34;;;;;;;33.47;16.13;;;;;;;0.67;79.75;98871.78;4944327;28;20770;-48
2021/11/24 07:05:59;;;;;;;32.15;15.98;;;;;;;0.81;79.48;98873.28;4934794;29;20394;-48
2021/11/24 07:08:24;;;;;;;31.95;15.07;;;;;;;0.89;79.02;98879.97;4934563;29;20114;-50
2021/11/24 20:19:38;;;;;;;48.10;15.95;;;;;;;1.91;73.10;98061.31;5951742;23;21025;-50
2021/11/24 20:22:03;;;;;;;49.75;17.65;;;;;;;1.99;73.56;98061.03;4837439;29;20041;-52
2021/11/24 20:24:29;;;;;;;44.10;14.65;;;;;;;1.71;74.57;98067.19;4823750;29;20053;-51
2021/11/24 20:26:54;;;;;;;52.28;17.88;;;;;;;1.81;74.26;98062.53;4846853;29;20041;-50
2021/11/24 20:29:20;;;;;;;50.05;16.88;;;;;;;1.59;74.74;98047.78;4852579;29;20038;-52
2021/11/24 20:31:46;;;;;;;53.83;17.02;;;;;;;1.69;74.73;98057.78;4833430;29;20498;-49
2021/11/24 20:34:11;;;;;;;51.80;18.02;;;;;;;1.86;74.42;98055.47;4824813;29;20035;-51
2021/11/24 20:36:37;;;;;;;53.80;17.92;;;;;;;1.60;74.86;98049.47;4824096;29;20109;-50
2021/11/24 20:39:02;;;;;;;49.85;16.58;;;;;;;1.56;75.17;98042.72;4832485;29;20030;-53
2021/11/24 20:41:29;;;;;;;45.03;14.68;;;;;;;1.60;75.08;98041.72;4843589;29;20087;-52
2021/11/24 20:43:58;;;;;;;45.72;17.25;;;;;;;1.66;75.32;98032.91;4839077;29;20030;-52
2021/11/24 20:46:23;;;;;;;49.25;18.20;;;;;;;1.72;74.48;98037.00;4827073;29;20038;-55
2021/11/24 20:48:49;;;;;;;47.38;17.00;;;;;;;1.83;74.58;98030.56;4831024;29;20026;-54
2021/11/24 20:51:14;;;;;;;46.97;16.10;;;;;;;1.66;74.81;98022.56;4824946;29;20025;-50
2021/11/24 20:53:41;;;;;;;48.92;16.35;;;;;;;1.63;74.80;98013.16;4822930;29;20026;-50
2021/11/24 20:56:14;;;;;;;55.47;17.02;;;;;;;1.83;74.58;98016.78;4824346;29;20038;-49
2021/11/24 20:58:40;;;;;;;50.78;16.23;;;;;;;1.66;74.77;98014.81;4829375;29;20038;-49
2021/11/24 21:01:05;;;;;;;44.67;16.08;;;;;;;1.79;74.53;98012.59;4822148;29;20533;-49
2021/11/24 21:03:30;;;;;;;42.88;15.18;;;;;;;1.53;75.90;98013.53;4825064;29;20036;-52
2021/11/24 21:05:56;;;;;;;48.00;17.27;;;;;;;1.66;74.82;98002.72;4823387;29;20052;-49
2021/11/24 21:08:21;;;;;;;44.55;16.20;;;;;;;1.60;74.87;98002.94;4824628;29;20034;-48
2021/11/24 21:10:46;;;;;;;49.33;17.13;;;;;;;1.83;74.09;97989.19;4824964;29;20026;-51
2021/11/24 21:13:12;;;;;;;47.08;16.08;;;;;;;1.77;74.55;98004.06;4824434;29;20398;-52
2021/11/24 21:15:37;;;;;;;49.17;16.52;;;;;;;1.49;75.64;97997.31;4838481;29;20101;-48
2021/11/24 21:18:02;;;;;;;45.88;16.05;;;;;;;1.93;74.19;98004.34;4842637;29;20026;-51
2021/11/24 21:20:28;;;;;;;45.50;15.68;;;;;;;1.96;73.99;97993.88;4841588;29;20405;-52
